Yellow Jacket, CO (81335)

1:18 AM MDT on August 25, 2016 (GMT -0600)
East Lewis | | Change Station

Elev 6909 ft 37.52 °N, 108.63 °W | Updated 6 minutes ago

Clear
Clear
52.5 °F
Feels Like 52.5 °F
N
3.0
Wind Variable Wind from NE
Gusts 7.0 mph

Today
High -- | Low -- °F
--% Chance of Precip.
Yesterday
High -- | Low -- °F
Precip. -- in
Pressure 30.04 in
Visibility 10.0 miles
Clouds Clear
Dew Point 44 °F
Humidity 72%
Rainfall 0.00 in
Snow Depth Not available.
6:40 AM 7:53 PM
Waning Gibbous, 48% visible
METAR KCEZ 250653Z AUTO 00000KT 10SM CLR 13/09 A3023 RMK AO2 SLP172 T01330094 402610117
Pressure 30.04 in
Visibility 10.0 miles
Clouds Clear
Dew Point 44 °F
Humidity 72%
Rainfall 0.00 in
Snow Depth Not available.
6:40 AM 7:53 PM
Waning Gibbous, 48% visible
METAR KCEZ 250653Z AUTO 00000KT 10SM CLR 13/09 A3023 RMK AO2 SLP172 T01330094 402610117

10-Day Weather Forecast

Almanac

Astronomy

Aug. 25, 2016 Rise Set
Actual Time
Civil Twilight
Nautical Twilight
Astronomical Twilight
Moon
Length of Visible Light
Length of Day
Tomorrow will be .
, % of the Moon is Illuminated

Today's Extremes

State Highs State Lows

Community

WunderPhotos

Upload Photos

1,934,814 photos uploaded!

WunderBlog® & News

Nearby

Air Quality

  Air Quality AQ Index Pollutant
Not available.

Snow Depth

Station Depth Elevation

Earthquake Activity

City Distance Mag. Time & Date
Minimum magnitude displayed is 2.5.

Coastal Water Temperatures

Place Temperature

Stations

Nearby Weather Stations

Station Location Temp. Windchill Dew Point Humidity Wind Precip. Elev Updated Type
                   

Watches & Warnings

There are currently no watches in effect.